Time;durP1;ratioP1;P1;durP2;ratioP2;P2;SDS_P1;SDS_P2;PMS_P1;PMS_P2;Temp;Humidity;BMP_temperature;BMP_pressure;BME280_temperature;BME280_humidity;BME280_pressure;Samples;Min_cycle;Max_cycle;Signal;HPM_P1;HPM_P2
2023/07/20 00:02:24;;;;;;;5.50;4.00;;;16.30;99.90;;;;;;5100073;28;20123;-50
2023/07/20 00:04:49;;;;;;;4.25;3.40;;;16.30;99.90;;;;;;5113197;28;20084;-46
2023/07/20 00:07:15;;;;;;;4.35;2.72;;;16.30;99.90;;;;;;5112776;28;20046;-50
2023/07/20 00:09:41;;;;;;;5.40;3.55;;;16.30;99.90;;;;;;5103258;28;20127;-48
2023/07/20 00:12:07;;;;;;;4.93;2.90;;;16.30;99.90;;;;;;5092831;28;20032;-48
2023/07/20 00:14:33;;;;;;;4.78;2.88;;;16.20;99.90;;;;;;5112232;28;20054;-52
2023/07/20 00:16:58;;;;;;;3.97;3.10;;;16.20;99.90;;;;;;5112817;28;20040;-49
2023/07/20 00:19:27;;;;;;;4.97;2.85;;;16.10;99.90;;;;;;5112675;28;20047;-48
2023/07/20 00:21:54;;;;;;;4.30;2.63;;;16.10;99.90;;;;;;5091658;28;20517;-51
2023/07/20 00:24:20;;;;;;;4.95;2.60;;;16.10;99.90;;;;;;5073604;28;20091;-48
2023/07/20 00:26:46;;;;;;;4.35;2.58;;;16.10;99.90;;;;;;5074968;28;20444;-48
2023/07/20 00:29:12;;;;;;;5.32;3.20;;;16.10;99.90;;;;;;5092174;28;20043;-49
2023/07/20 00:31:38;;;;;;;3.65;2.63;;;16.10;99.90;;;;;;5091851;28;20075;-47
2023/07/20 00:34:04;;;;;;;3.78;2.42;;;16.10;99.90;;;;;;5092060;28;20068;-48
2023/07/20 00:36:30;;;;;;;4.00;2.17;;;16.10;99.90;;;;;;5092205;28;20044;-48
2023/07/20 00:38:56;;;;;;;5.43;1.90;;;16.10;99.90;;;;;;5091897;28;20043;-48
2023/07/20 00:41:22;;;;;;;4.03;2.10;;;16.10;99.90;;;;;;5091918;28;20048;-47
2023/07/20 00:43:47;;;;;;;4.88;2.13;;;16.10;99.90;;;;;;5091111;28;20364;-49
2023/07/20 00:46:14;;;;;;;4.18;1.90;;;16.10;99.90;;;;;;5091851;28;20102;-50
2023/07/20 00:48:42;;;;;;;2.33;1.50;;;16.10;99.90;;;;;;5091955;28;20093;-48
2023/07/20 00:51:08;;;;;;;3.67;1.90;;;16.00;99.90;;;;;;5092872;28;20063;-52
2023/07/20 00:53:33;;;;;;;3.10;1.67;;;16.00;99.90;;;;;;5111995;28;20143;-49
2023/07/20 00:55:59;;;;;;;4.93;1.90;;;16.00;99.90;;;;;;5111819;28;20034;-49
2023/07/20 00:58:25;;;;;;;3.83;1.85;;;15.90;99.90;;;;;;5108263;28;20048;-49
2023/07/20 01:00:51;;;;;;;4.22;2.33;;;15.90;99.90;;;;;;5073291;28;20044;-48
2023/07/20 01:03:17;;;;;;;3.30;2.10;;;15.90;99.90;;;;;;5054282;28;20041;-50
2023/07/20 01:05:59;;;;;;;3.55;2.22;;;15.90;99.90;;;;;;5071310;28;20114;-46
2023/07/20 01:08:36;;;;;;;5.18;2.60;;;16.00;99.90;;;;;;5071066;28;20115;-48
2023/07/20 01:11:15;;;;;;;3.80;2.38;;;15.80;99.90;;;;;;5070746;28;20047;-48
2023/07/20 01:13:42;;;;;;;3.80;2.22;;;15.90;99.90;;;;;;5075159;28;20032;-48
2023/07/20 01:16:09;;;;;;;3.85;2.63;;;15.90;99.90;;;;;;5071052;28;20523;-48
2023/07/20 01:18:34;;;;;;;4.15;2.40;;;15.80;99.90;;;;;;5070655;28;20055;-48
2023/07/20 01:21:06;;;;;;;3.53;2.63;;;15.80;99.90;;;;;;5085241;28;20040;-49
2023/07/20 01:23:51;;;;;;;4.05;2.63;;;15.80;99.90;;;;;;5072894;28;20064;-50
2023/07/20 01:26:27;;;;;;;;;;;15.80;99.90;;;;;;5083801;28;20062;-50
2023/07/20 01:29:30;;;;;;;3.42;2.50;;;15.70;99.90;;;;;;5076292;28;20022;-52
2023/07/20 01:31:57;;;;;;;5.22;2.80;;;15.70;99.90;;;;;;5069935;28;20036;-48
2023/07/20 01:34:25;;;;;;;4.43;2.58;;;15.60;99.90;;;;;;5074677;28;20037;-48
2023/07/20 01:36:53;;;;;;;4.32;2.53;;;15.60;99.90;;;;;;5078854;28;20126;-46
2023/07/20 01:39:20;;;;;;;3.92;2.80;;;15.60;99.90;;;;;;5074670;28;20046;-49
2023/07/20 01:41:46;;;;;;;3.80;2.53;;;15.50;99.90;;;;;;5071834;28;20032;-51
2023/07/20 01:44:13;;;;;;;3.92;2.67;;;15.50;99.90;;;;;;5080310;28;20048;-50
2023/07/20 01:46:38;;;;;;;4.32;2.63;;;15.40;99.90;;;;;;5074063;28;20037;-47
2023/07/20 01:49:04;;;;;;;4.60;3.10;;;15.30;99.90;;;;;;5070575;28;20403;-48
2023/07/20 01:51:30;;;;;;;4.05;2.90;;;15.30;99.90;;;;;;5070702;28;20119;-49
2023/07/20 01:53:55;;;;;;;3.92;2.90;;;15.30;99.90;;;;;;5070251;28;20048;-47
2023/07/20 01:56:21;;;;;;;4.45;3.10;;;15.20;99.90;;;;;;5052242;28;20120;-48
2023/07/20 01:58:47;;;;;;;5.78;2.97;;;15.20;99.90;;;;;;5079320;28;20067;-48
2023/07/20 02:01:12;;;;;;;5.05;3.47;;;15.10;99.90;;;;;;5110973;28;20469;-50
2023/07/20 02:03:38;;;;;;;5.78;3.72;;;15.10;99.90;;;;;;5111675;28;20046;-46
2023/07/20 02:06:04;;;;;;;4.82;3.40;;;15.10;99.90;;;;;;5110658;28;20118;-50
2023/07/20 02:08:29;;;;;;;4.70;3.60;;;15.00;99.90;;;;;;5092919;28;20136;-50
2023/07/20 02:10:55;;;;;;;4.45;3.60;;;15.00;99.90;;;;;;5111036;28;20043;-48
2023/07/20 02:13:21;;;;;;;4.55;3.65;;;15.00;99.90;;;;;;5110819;28;20043;-51
2023/07/20 02:15:50;;;;;;;5.18;3.97;;;14.90;99.90;;;;;;5111028;28;20047;-52
2023/07/20 02:18:16;;;;;;;4.80;3.65;;;15.00;99.90;;;;;;5110868;28;20132;-48
2023/07/20 02:20:42;;;;;;;4.70;3.85;;;14.90;99.90;;;;;;5110811;28;20532;-50
2023/07/20 02:23:10;;;;;;;5.78;4.40;;;14.90;99.90;;;;;;5110788;28;20498;-50
2023/07/20 02:25:36;;;;;;;4.90;3.67;;;14.80;99.90;;;;;;5107818;28;20028;-49
2023/07/20 02:28:01;;;;;;;6.38;4.20;;;14.80;99.90;;;;;;5081353;28;20053;-50
2023/07/20 02:30:27;;;;;;;5.90;4.28;;;14.80;99.90;;;;;;5105227;28;20032;-48
2023/07/20 02:32:53;;;;;;;5.28;4.20;;;14.70;99.90;;;;;;5101140;28;20050;-48
2023/07/20 02:35:19;;;;;;;5.70;4.18;;;14.70;99.90;;;;;;5090406;28;20043;-52
2023/07/20 02:37:45;;;;;;;5.80;4.22;;;14.70;99.90;;;;;;5100492;28;20071;-49
2023/07/20 02:40:11;;;;;;;5.80;4.13;;;14.60;99.90;;;;;;5110646;28;20082;-48
2023/07/20 02:42:37;;;;;;;6.05;4.07;;;14.70;99.90;;;;;;5110565;28;20075;-49
2023/07/20 02:45:04;;;;;;;6.80;4.40;;;14.60;99.90;;;;;;5110742;28;20069;-50
2023/07/20 02:47:29;;;;;;;4.90;4.13;;;14.60;99.90;;;;;;5108556;28;20440;-51
2023/07/20 02:49:55;;;;;;;6.72;4.65;;;14.60;99.90;;;;;;5090060;28;20036;-49
2023/07/20 02:52:21;;;;;;;5.45;4.30;;;14.60;99.90;;;;;;5095204;28;20039;-49
2023/07/20 02:54:46;;;;;;;6.15;4.80;;;14.60;99.90;;;;;;5110240;28;20047;-50
2023/07/20 02:57:12;;;;;;;5.13;4.20;;;14.50;99.90;;;;;;5110354;28;20046;-51
2023/07/20 02:59:38;;;;;;;5.68;4.57;;;14.50;99.90;;;;;;5110529;28;20047;-50
2023/07/20 03:02:04;;;;;;;7.25;4.78;;;14.50;99.90;;;;;;5107933;28;20032;-51
2023/07/20 03:04:29;;;;;;;5.72;4.60;;;14.50;99.90;;;;;;5110613;28;20042;-52
2023/07/20 03:06:55;;;;;;;6.22;4.55;;;14.50;99.90;;;;;;5110613;28;20038;-49
2023/07/20 03:09:21;;;;;;;5.20;4.70;;;14.40;99.90;;;;;;5114099;28;20063;-48
2023/07/20 03:11:49;;;;;;;5.65;4.93;;;14.40;99.90;;;;;;5078007;28;20071;-52
2023/07/20 03:14:15;;;;;;;5.20;4.57;;;14.40;99.90;;;;;;5107420;28;20031;-51
2023/07/20 03:16:41;;;;;;;7.35;5.50;;;14.30;99.90;;;;;;5113522;28;20035;-48
2023/07/20 03:19:07;;;;;;;6.40;4.97;;;14.30;99.90;;;;;;5106528;28;20044;-52
2023/07/20 03:21:32;;;;;;;5.75;4.88;;;14.20;99.90;;;;;;5093382;28;20036;-50
2023/07/20 03:23:58;;;;;;;5.65;5.07;;;14.20;99.90;;;;;;5092931;28;20043;-50
2023/07/20 03:26:24;;;;;;;5.45;4.70;;;14.20;99.90;;;;;;5096325;28;20097;-50
2023/07/20 03:28:49;;;;;;;6.55;5.30;;;14.20;99.90;;;;;;5113811;28;20036;-53
2023/07/20 03:31:15;;;;;;;5.38;4.88;;;14.20;99.90;;;;;;5109992;28;20032;-52
2023/07/20 03:33:40;;;;;;;5.25;2.97;;;14.10;99.90;;;;;;5093380;28;20082;-49
2023/07/20 03:36:06;;;;;;;5.97;5.38;;;14.10;99.90;;;;;;5093336;28;20036;-51
2023/07/20 03:38:32;;;;;;;6.72;5.13;;;14.10;99.90;;;;;;5093066;28;20043;-46
2023/07/20 03:41:00;;;;;;;6.93;5.00;;;14.10;99.90;;;;;;5099632;28;20037;-48
2023/07/20 03:43:27;;;;;;;5.75;5.13;;;14.00;99.90;;;;;;5108362;28;20046;-51
2023/07/20 03:45:53;;;;;;;8.10;5.50;;;14.00;99.90;;;;;;5113303;28;20081;-48
2023/07/20 03:48:22;;;;;;;5.15;4.47;;;13.90;99.90;;;;;;5094896;28;20066;-52
2023/07/20 03:50:49;;;;;;;5.28;4.57;;;13.90;99.90;;;;;;5112197;28;20104;-46
2023/07/20 03:53:16;;;;;;;6.28;5.07;;;14.00;99.90;;;;;;5095450;28;20071;-46
2023/07/20 03:55:51;;;;;;;5.07;4.57;;;13.90;99.90;;;;;;5111237;28;20048;-49
2023/07/20 03:58:18;;;;;;;6.53;3.42;;;14.00;99.90;;;;;;5112100;28;20440;-49
2023/07/20 04:00:46;;;;;;;4.90;4.40;;;13.90;99.90;;;;;;5113197;28;20043;-48
2023/07/20 04:03:12;;;;;;;5.57;3.05;;;13.90;99.90;;;;;;5112756;28;20046;-49
2023/07/20 04:05:37;;;;;;;5.93;4.40;;;13.90;99.90;;;;;;5113051;28;20114;-49
2023/07/20 04:08:03;;;;;;;5.53;3.10;;;13.90;99.90;;;;;;5112669;28;20169;-47
2023/07/20 04:10:29;;;;;;;4.93;4.32;;;13.90;99.90;;;;;;5094900;28;20111;-50
2023/07/20 04:12:55;;;;;;;6.60;4.95;;;13.90;99.90;;;;;;5112797;28;20116;-50
2023/07/20 04:15:21;;;;;;;6.75;5.20;;;13.90;99.90;;;;;;5112927;28;20036;-50
2023/07/20 04:17:46;;;;;;;5.90;5.00;;;14.00;99.90;;;;;;5112108;28;20530;-48
2023/07/20 04:20:12;;;;;;;6.13;3.40;;;13.90;99.90;;;;;;5094626;28;20043;-49
2023/07/20 04:22:38;;;;;;;7.40;4.25;;;14.00;99.90;;;;;;5112348;28;20046;-52
2023/07/20 04:25:04;;;;;;;6.07;5.32;;;13.90;99.90;;;;;;5112192;28;20473;-50
2023/07/20 04:27:30;;;;;;;5.93;5.18;;;14.00;99.90;;;;;;5112152;28;20051;-47
2023/07/20 04:29:58;;;;;;;7.38;5.13;;;14.00;99.90;;;;;;5111944;28;20651;-47
2023/07/20 04:32:25;;;;;;;6.28;3.88;;;14.10;99.90;;;;;;5077358;28;20050;-49
2023/07/20 04:34:50;;;;;;;4.10;3.15;;;14.10;99.90;;;;;;5093901;28;20039;-49
2023/07/20 04:37:16;;;;;;;4.45;3.55;;;14.10;99.90;;;;;;5111794;28;20324;-46
2023/07/20 04:39:42;;;;;;;5.45;3.60;;;14.10;99.90;;;;;;5111431;28;20395;-49
2023/07/20 04:42:08;;;;;;;4.90;3.80;;;14.10;99.90;;;;;;5112108;28;20079;-51
2023/07/20 04:44:33;;;;;;;5.40;4.00;;;14.10;99.90;;;;;;5111393;28;20035;-49
2023/07/20 04:46:59;;;;;;;5.50;3.92;;;14.10;99.90;;;;;;5103416;28;20399;-51
2023/07/20 04:49:25;;;;;;;6.00;4.43;;;14.20;99.90;;;;;;5097633;28;20031;-52
2023/07/20 04:51:51;;;;;;;7.85;4.72;;;14.20;99.90;;;;;;5112015;28;20044;-49
2023/07/20 04:54:18;;;;;;;7.05;4.70;;;14.20;99.90;;;;;;5111544;28;20506;-48
2023/07/20 04:56:44;;;;;;;6.32;4.30;;;14.20;99.90;;;;;;5112012;28;20058;-49
2023/07/20 04:59:09;;;;;;;5.65;4.70;;;14.30;99.90;;;;;;5111884;28;20534;-50
2023/07/20 05:01:35;;;;;;;9.40;4.95;;;14.30;99.90;;;;;;5111859;28;20044;-52
2023/07/20 05:04:01;;;;;;;6.97;4.35;;;14.20;99.90;;;;;;5110684;28;20032;-51
2023/07/20 05:06:27;;;;;;;5.72;4.53;;;14.30;99.90;;;;;;5111661;28;20055;-51
2023/07/20 05:08:53;;;;;;;5.25;4.25;;;14.20;99.90;;;;;;5111610;28;20047;-52
2023/07/20 05:11:18;;;;;;;5.57;4.38;;;14.30;99.90;;;;;;5111954;28;20114;-48
2023/07/20 05:13:44;;;;;;;6.10;4.63;;;14.30;99.90;;;;;;5111619;28;20034;-46
2023/07/20 05:16:10;;;;;;;5.93;4.40;;;14.30;99.90;;;;;;5093574;28;20040;-51
2023/07/20 05:18:35;;;;;;;6.47;4.47;;;14.40;99.90;;;;;;5111435;28;20398;-48
2023/07/20 05:21:01;;;;;;;5.78;4.57;;;14.40;99.90;;;;;;5093381;28;20036;-48
2023/07/20 05:23:26;;;;;;;6.53;4.28;;;14.40;99.90;;;;;;5111006;28;20390;-50
2023/07/20 05:25:56;;;;;;;5.80;4.45;;;14.50;99.90;;;;;;5110227;28;20043;-49
2023/07/20 05:28:23;;;;;;;5.60;4.40;;;14.50;99.90;;;;;;5110283;28;20028;-49
2023/07/20 05:30:51;;;;;;;6.90;4.00;;;14.50;99.90;;;;;;5110870;28;20486;-49
2023/07/20 05:33:17;;;;;;;7.43;4.43;;;14.50;99.90;;;;;;5093222;28;20042;-50
2023/07/20 05:35:43;;;;;;;5.85;3.80;;;14.50;99.90;;;;;;5110858;28;20035;-49
2023/07/20 05:38:09;;;;;;;5.05;3.05;;;14.60;99.90;;;;;;5110985;28;20109;-47
2023/07/20 05:40:37;;;;;;;4.97;3.10;;;14.50;99.90;;;;;;5110654;28;20062;-50
2023/07/20 05:43:03;;;;;;;5.95;3.58;;;14.60;99.90;;;;;;5109590;28;20368;-49
2023/07/20 05:45:29;;;;;;;5.60;3.45;;;14.60;99.90;;;;;;5098357;28;20105;-50
2023/07/20 05:47:54;;;;;;;6.72;2.88;;;14.70;99.90;;;;;;5090460;28;20087;-52
2023/07/20 05:50:20;;;;;;;6.57;3.33;;;14.70;99.90;;;;;;5090758;28;20119;-49
2023/07/20 05:52:46;;;;;;;6.80;3.28;;;14.80;99.90;;;;;;5098642;28;20130;-51
2023/07/20 05:55:11;;;;;;;7.03;2.92;;;14.80;99.90;;;;;;5088375;28;20118;-46
2023/07/20 05:57:41;;;;;;;4.00;2.60;;;14.80;99.90;;;;;;5090882;28;20050;-47
2023/07/20 06:00:08;;;;;;;5.53;2.70;;;14.90;99.90;;;;;;5106987;28;20099;-47
2023/07/20 06:02:33;;;;;;;5.25;2.42;;;15.00;99.90;;;;;;5089826;28;20036;-51
2023/07/20 06:04:59;;;;;;;3.60;2.50;;;15.00;99.90;;;;;;5092391;28;20032;-48
2023/07/20 06:07:25;;;;;;;4.43;2.63;;;15.00;99.90;;;;;;5111119;28;20505;-47
2023/07/20 06:09:51;;;;;;;6.60;2.20;;;15.10;99.90;;;;;;5109506;28;20089;-49
2023/07/20 06:12:16;;;;;;;4.75;2.05;;;15.20;99.90;;;;;;5109933;28;20035;-51
2023/07/20 06:14:42;;;;;;;5.28;1.80;;;15.20;99.90;;;;;;5110732;28;20078;-50
2023/07/20 06:17:08;;;;;;;3.10;1.80;;;15.20;99.90;;;;;;5089562;28;20039;-52
2023/07/20 06:19:33;;;;;;;3.90;2.10;;;15.30;99.90;;;;;;5090821;28;20471;-53
2023/07/20 06:21:59;;;;;;;4.90;2.10;;;15.30;99.90;;;;;;5110467;28;20042;-47
2023/07/20 06:24:25;;;;;;;5.30;2.10;;;15.40;99.90;;;;;;5110474;28;20511;-50
2023/07/20 06:26:50;;;;;;;6.30;2.65;;;15.40;99.90;;;;;;5109464;28;20039;-48
2023/07/20 06:29:16;;;;;;;6.32;3.08;;;15.50;99.90;;;;;;5110818;28;20031;-49
2023/07/20 06:31:41;;;;;;;6.40;2.70;;;15.60;99.90;;;;;;5110967;28;20039;-48
2023/07/20 06:34:07;;;;;;;6.15;2.65;;;15.60;99.90;;;;;;5110662;28;20066;-53
2023/07/20 06:36:33;;;;;;;5.78;2.25;;;15.70;99.90;;;;;;5110382;28;20054;-50
2023/07/20 06:38:58;;;;;;;5.00;2.38;;;15.70;99.90;;;;;;5110561;28;20035;-52
2023/07/20 06:41:24;;;;;;;6.28;3.60;;;15.80;99.90;;;;;;5111759;28;20246;-47
2023/07/20 06:43:50;;;;;;;5.30;3.00;;;15.90;99.90;;;;;;5114423;28;20039;-47
2023/07/20 06:46:15;;;;;;;7.65;3.60;;;16.00;99.90;;;;;;5114566;28;20055;-48
2023/07/20 06:48:41;;;;;;;7.13;3.78;;;16.00;99.90;;;;;;5108946;28;20402;-46
2023/07/20 06:51:07;;;;;;;7.05;3.97;;;16.20;99.90;;;;;;5105785;28;20035;-50
2023/07/20 06:53:33;;;;;;;9.48;3.20;;;16.20;99.90;;;;;;5112187;28;20113;-51
2023/07/20 06:55:58;;;;;;;6.82;3.28;;;16.20;99.90;;;;;;5111154;28;20126;-51
2023/07/20 06:58:25;;;;;;;5.40;2.40;;;16.30;99.90;;;;;;5108976;28;20355;-49
2023/07/20 07:00:51;;;;;;;5.72;2.28;;;16.30;99.90;;;;;;5079274;28;20047;-50
2023/07/20 07:03:17;;;;;;;6.43;2.55;;;16.30;99.90;;;;;;5079899;28;20040;-51
2023/07/20 07:05:45;;;;;;;4.28;2.00;;;16.30;99.90;;;;;;5082149;28;20480;-47
2023/07/20 07:08:11;;;;;;;5.72;1.75;;;16.30;99.90;;;;;;5077594;28;20102;-47
2023/07/20 07:10:36;;;;;;;6.55;2.25;;;16.30;99.90;;;;;;5077380;28;20028;-53
2023/07/20 07:13:03;;;;;;;5.03;2.15;;;16.20;99.90;;;;;;5076648;28;20035;-53
2023/07/20 07:15:29;;;;;;;4.15;1.90;;;16.20;99.90;;;;;;5076084;28;20166;-48
2023/07/20 07:17:56;;;;;;;4.50;1.80;;;16.20;99.90;;;;;;5076674;28;20215;-48
2023/07/20 07:20:23;;;;;;;6.22;2.28;;;16.30;99.90;;;;;;5076647;28;20044;-54
2023/07/20 07:22:50;;;;;;;4.68;2.65;;;16.30;99.90;;;;;;5076938;28;20108;-49
2023/07/20 07:25:16;;;;;;;6.18;2.58;;;16.40;99.90;;;;;;5075662;28;20032;-45
2023/07/20 07:27:41;;;;;;;4.70;2.20;;;16.50;99.90;;;;;;5076776;28;20563;-48
2023/07/20 07:30:07;;;;;;;4.65;1.58;;;16.60;99.90;;;;;;5078531;28;20543;-50
2023/07/20 07:32:33;;;;;;;4.82;2.10;;;16.70;99.90;;;;;;5076361;28;20032;-52
2023/07/20 07:35:00;;;;;;;4.13;1.70;;;16.80;99.90;;;;;;5079768;28;20431;-52
2023/07/20 07:37:26;;;;;;;4.63;1.30;;;16.90;99.90;;;;;;5081893;28;20044;-46
2023/07/20 07:39:51;;;;;;;4.28;1.73;;;16.90;99.90;;;;;;5076278;28;20047;-50
2023/07/20 07:42:18;;;;;;;4.10;1.50;;;16.80;99.90;;;;;;5075620;28;20040;-52
2023/07/20 07:44:44;;;;;;;5.85;1.80;;;16.80;99.90;;;;;;5077870;28;20522;-53
2023/07/20 07:47:10;;;;;;;4.72;2.22;;;16.80;99.90;;;;;;5075938;28;20054;-49
2023/07/20 07:49:36;;;;;;;4.90;2.10;;;16.70;99.90;;;;;;5077534;28;20487;-49
2023/07/20 07:52:04;;;;;;;4.93;1.40;;;16.80;99.90;;;;;;5080625;28;20040;-47
2023/07/20 07:54:30;;;;;;;4.57;1.73;;;16.80;99.90;;;;;;5080295;28;20049;-49
2023/07/20 07:56:56;;;;;;;3.25;1.42;;;16.90;99.90;;;;;;5077673;28;20060;-48
2023/07/20 07:59:22;;;;;;;3.92;1.50;;;16.80;99.90;;;;;;5090020;28;20077;-48
2023/07/20 08:01:48;;;;;;;5.57;1.50;;;16.80;99.90;;;;;;5110246;28;20537;-48
2023/07/20 08:04:14;;;;;;;6.15;1.63;;;16.90;99.90;;;;;;5094410;28;20036;-47
2023/07/20 08:06:40;;;;;;;2.97;1.20;;;16.80;99.90;;;;;;5110851;28;20046;-48
2023/07/20 08:09:05;;;;;;;2.63;1.17;;;16.90;99.90;;;;;;5092994;28;20064;-52
2023/07/20 08:11:33;;;;;;;4.13;1.20;;;16.90;99.90;;;;;;5108446;28;20038;-48
2023/07/20 08:14:00;;;;;;;2.83;1.00;;;17.00;99.90;;;;;;5107944;28;20063;-49
2023/07/20 08:16:26;;;;;;;2.92;1.02;;;17.00;99.90;;;;;;5108092;28;20054;-47
2023/07/20 08:18:52;;;;;;;2.65;0.80;;;17.10;99.90;;;;;;5110555;28;20027;-50
2023/07/20 08:21:18;;;;;;;2.53;0.90;;;17.20;99.90;;;;;;5107014;28;20081;-52
2023/07/20 08:23:44;;;;;;;2.30;0.98;;;17.40;99.90;;;;;;5109163;28;20043;-51
2023/07/20 08:26:09;;;;;;;3.78;1.00;;;17.50;99.90;;;;;;5109792;28;20061;-47
2023/07/20 08:28:35;;;;;;;3.83;1.05;;;17.50;99.90;;;;;;5110247;28;20043;-49
2023/07/20 08:31:02;;;;;;;2.75;1.00;;;17.50;99.90;;;;;;5092208;28;20360;-50
2023/07/20 08:33:29;;;;;;;4.03;1.20;;;17.50;99.90;;;;;;5110672;28;20039;-49
2023/07/20 08:35:56;;;;;;;3.90;1.08;;;17.50;99.90;;;;;;5110520;28;20115;-51
2023/07/20 08:38:22;;;;;;;3.15;1.00;;;17.50;99.90;;;;;;5092583;28;20081;-52
2023/07/20 08:40:48;;;;;;;4.20;0.95;;;17.70;99.90;;;;;;5110701;28;20039;-51
2023/07/20 08:43:18;;;;;;;2.00;0.80;;;17.80;99.90;;;;;;5091839;28;20356;-50
2023/07/20 08:45:46;;;;;;;2.55;0.90;;;18.00;99.90;;;;;;5110044;28;20477;-51
2023/07/20 08:48:12;;;;;;;2.97;0.98;;;18.00;99.90;;;;;;5111146;28;20040;-49
2023/07/20 08:50:38;;;;;;;1.92;0.90;;;18.10;99.90;;;;;;5110132;28;20028;-48
2023/07/20 08:53:04;;;;;;;2.60;0.60;;;18.10;99.90;;;;;;5109776;28;20498;-49
2023/07/20 08:55:31;;;;;;;1.80;0.85;;;18.10;99.90;;;;;;5109976;28;20042;-50
2023/07/20 08:57:59;;;;;;;2.03;0.70;;;18.10;99.90;;;;;;5109933;28;20474;-47
2023/07/20 09:00:26;;;;;;;2.53;0.80;;;18.00;99.90;;;;;;5109904;28;20566;-49
2023/07/20 09:02:56;;;;;;;4.13;0.85;;;17.90;99.90;;;;;;5090477;28;20040;-50
2023/07/20 09:05:24;;;;;;;1.92;0.60;;;17.90;99.90;;;;;;5089946;28;20121;-49
2023/07/20 09:07:55;;;;;;;1.45;0.73;;;17.90;99.90;;;;;;5105214;28;20372;-51
2023/07/20 09:10:22;;;;;;;2.85;0.60;;;17.90;99.90;;;;;;5110705;28;20032;-50
2023/07/20 09:12:48;;;;;;;1.90;0.60;;;17.80;99.90;;;;;;5110195;28;20079;-50
2023/07/20 09:15:15;;;;;;;1.95;0.70;;;17.80;99.90;;;;;;5109793;28;20102;-49
2023/07/20 09:17:49;;;;;;;2.15;0.55;;;17.80;99.90;;;;;;5110718;28;20040;-48
2023/07/20 09:20:15;;;;;;;;;;;17.80;99.90;;;;;;5111140;28;20048;-47
2023/07/20 09:22:42;;;;;;;2.70;0.60;;;17.70;99.90;;;;;;5110193;28;19919;-48
2023/07/20 09:25:15;;;;;;;2.53;0.70;;;17.70;99.90;;;;;;5106955;28;20471;-53
2023/07/20 09:27:46;;;;;;;2.25;0.63;;;17.70;99.90;;;;;;5108156;28;20133;-50
2023/07/20 09:30:14;;;;;;;1.92;0.60;;;17.70;99.90;;;;;;5102478;28;20036;-49
2023/07/20 09:32:41;;;;;;;2.05;0.68;;;17.90;99.90;;;;;;5104789;28;20048;-49
2023/07/20 09:35:12;;;;;;;1.77;0.70;;;18.10;99.90;;;;;;5106206;28;20490;-50
2023/07/20 09:37:37;;;;;;;2.90;0.75;;;18.40;99.90;;;;;;5089700;28;20071;-51
2023/07/20 09:40:08;;;;;;;1.48;0.60;;;18.70;99.90;;;;;;5094765;28;20447;-51
2023/07/20 09:42:36;;;;;;;0.88;0.50;;;18.80;99.90;;;;;;5104223;28;20150;-47
2023/07/20 09:45:02;;;;;;;1.70;0.65;;;19.00;99.90;;;;;;5107847;28;20040;-49
2023/07/20 09:47:29;;;;;;;2.30;0.60;;;19.00;99.90;;;;;;5109409;28;20023;-50
2023/07/20 09:50:03;;;;;;;2.83;0.60;;;19.20;99.90;;;;;;5108573;28;20032;-52
2023/07/20 09:52:29;;;;;;;2.05;0.60;;;19.50;99.90;;;;;;5109218;28;20046;-52
2023/07/20 09:54:55;;;;;;;2.83;0.60;;;19.60;99.90;;;;;;5108536;28;20038;-50
2023/07/20 09:57:21;;;;;;;2.65;0.60;;;19.50;99.90;;;;;;5109214;28;20050;-50
2023/07/20 09:59:47;;;;;;;1.83;0.60;;;19.40;99.90;;;;;;5090769;28;20076;-47
2023/07/20 10:02:27;;;;;;;2.53;0.90;;;19.30;99.90;;;;;;5075230;28;20086;-49
2023/07/20 10:04:53;;;;;;;4.63;1.00;;;19.20;99.90;;;;;;5072833;28;20039;-48
2023/07/20 10:07:22;;;;;;;2.35;0.80;;;19.00;99.90;;;;;;5072456;28;20105;-48
2023/07/20 10:09:51;;;;;;;2.25;0.80;;;18.80;99.90;;;;;;5057650;28;20043;-52
2023/07/20 10:12:18;;;;;;;3.72;1.08;;;18.60;99.90;;;;;;5073979;28;20049;-49
2023/07/20 10:14:57;;;;;;;6.13;1.80;;;18.50;99.90;;;;;;5074247;28;20383;-50
2023/07/20 10:17:25;;;;;;;5.85;1.90;;;18.30;99.90;;;;;;5077242;28;20033;-49
2023/07/20 10:19:56;;;;;;;4.75;1.42;;;18.20;99.90;;;;;;5078528;28;20032;-47
2023/07/20 10:22:26;;;;;;;5.25;1.55;;;18.10;99.90;;;;;;5077473;28;20067;-49
2023/07/20 10:24:54;;;;;;;4.43;1.30;;;18.10;99.90;;;;;;5077869;28;20047;-48
2023/07/20 10:27:20;;;;;;;2.78;0.90;;;18.10;99.90;;;;;;5079839;28;20105;-48
2023/07/20 10:29:48;;;;;;;2.63;0.75;;;18.10;99.90;;;;;;5060066;28;20040;-52
2023/07/20 10:32:13;;;;;;;1.77;0.80;;;18.10;99.90;;;;;;5076429;28;20119;-49
2023/07/20 10:34:39;;;;;;;3.17;0.90;;;18.10;99.90;;;;;;5077845;28;20131;-50
2023/07/20 10:37:05;;;;;;;3.67;0.90;;;18.20;99.90;;;;;;5074917;28;20040;-51
2023/07/20 10:39:32;;;;;;;3.47;1.00;;;18.30;99.90;;;;;;5077721;28;20392;-49
2023/07/20 10:42:03;;;;;;;4.32;1.00;;;18.40;99.90;;;;;;5059951;28;20039;-47
2023/07/20 10:44:30;;;;;;;3.00;0.90;;;18.60;99.90;;;;;;5083922;28;20502;-51
2023/07/20 10:47:00;;;;;;;3.17;0.95;;;18.70;99.90;;;;;;5076881;28;20123;-47
2023/07/20 10:49:27;;;;;;;2.78;0.93;;;18.80;99.90;;;;;;5075611;28;20074;-49
2023/07/20 10:52:02;;;;;;;3.58;1.08;;;18.80;99.90;;;;;;5081715;28;20083;-51
2023/07/20 10:54:28;;;;;;;4.00;1.00;;;19.00;99.90;;;;;;5079646;28;20426;-50
2023/07/20 10:56:56;;;;;;;4.20;1.20;;;19.10;99.90;;;;;;5075871;28;20161;-52
2023/07/20 10:59:25;;;;;;;3.00;0.98;;;19.30;99.90;;;;;;5069146;28;20055;-50
2023/07/20 11:02:01;;;;;;;2.20;0.93;;;19.40;99.90;;;;;;5093422;28;20056;-48
2023/07/20 11:04:41;;;;;;;3.58;1.00;;;19.50;99.90;;;;;;5095586;28;20039;-49
2023/07/20 11:07:07;;;;;;;4.35;1.00;;;19.50;99.90;;;;;;5110036;28;20043;-50
2023/07/20 11:09:36;;;;;;;3.13;0.93;;;19.50;99.90;;;;;;5092050;28;20024;-47
2023/07/20 11:12:16;;;;;;;2.03;0.73;;;19.50;99.90;;;;;;5093598;28;20042;-52
2023/07/20 11:14:56;;;;;;;2.63;0.80;;;19.60;99.90;;;;;;5113152;28;20432;-48
2023/07/20 11:17:29;;;;;;;2.65;0.80;;;19.60;99.90;;;;;;5090955;28;20444;-47
2023/07/20 11:20:03;;;;;;;3.42;1.08;;;19.40;99.90;;;;;;5113214;28;20046;-48
2023/07/20 11:22:31;;;;;;;3.22;1.10;;;19.30;99.90;;;;;;5112877;28;20590;-47
2023/07/20 11:24:57;;;;;;;3.15;0.88;;;19.30;99.90;;;;;;5112897;28;20032;-48
2023/07/20 11:27:23;;;;;;;3.97;1.00;;;19.20;99.90;;;;;;5112665;28;20093;-50
2023/07/20 11:29:50;;;;;;;2.63;0.77;;;19.30;99.90;;;;;;5112029;28;20055;-49
2023/07/20 11:32:22;;;;;;;2.47;0.60;;;19.30;99.90;;;;;;5113058;28;20047;-60
2023/07/20 11:34:49;;;;;;;3.03;0.93;;;19.30;99.90;;;;;;5112307;28;20482;-50
2023/07/20 11:37:14;;;;;;;2.25;0.80;;;19.40;99.90;;;;;;5112434;28;20062;-49
2023/07/20 11:39:40;;;;;;;1.67;0.70;;;19.30;99.90;;;;;;5112023;28;20035;-48
2023/07/20 11:42:06;;;;;;;2.50;0.68;;;19.30;99.90;;;;;;5090918;28;20044;-52
2023/07/20 11:44:32;;;;;;;1.45;0.73;;;19.30;99.90;;;;;;5091768;28;20534;-52
2023/07/20 11:47:09;;;;;;;3.70;0.50;;;19.30;99.90;;;;;;5091985;28;20169;-48
2023/07/20 11:49:37;;;;;;;1.63;0.43;;;19.40;99.90;;;;;;5111272;28;20444;-50
2023/07/20 11:52:05;;;;;;;2.80;0.70;;;19.50;99.90;;;;;;5111805;28;20058;-52
2023/07/20 11:54:31;;;;;;;1.92;0.60;;;19.60;99.90;;;;;;5111799;28;20077;-49
2023/07/20 11:57:00;;;;;;;2.00;0.80;;;19.70;99.90;;;;;;5112021;28;20044;-50
2023/07/20 11:59:25;;;;;;;1.38;0.50;;;20.00;99.90;;;;;;5112225;28;20574;-49
2023/07/20 12:01:52;;;;;;;1.77;0.50;;;20.40;99.90;;;;;;5111637;28;20044;-51
2023/07/20 12:04:19;;;;;;;1.77;0.60;;;20.70;99.90;;;;;;5111638;28;20386;-49
2023/07/20 12:06:46;;;;;;;2.10;0.50;;;21.00;99.90;;;;;;5111816;28;20051;-51
2023/07/20 12:09:16;;;;;;;1.52;0.70;;;21.20;99.90;;;;;;5111959;28;20027;-52
2023/07/20 12:11:45;;;;;;;2.65;0.50;;;21.40;99.90;;;;;;5111547;28;20043;-48
2023/07/20 12:14:11;;;;;;;1.00;0.40;;;21.60;99.90;;;;;;5112003;28;20435;-51
2023/07/20 12:16:38;;;;;;;1.00;0.40;;;21.50;99.90;;;;;;5111811;28;20059;-49
2023/07/20 12:19:06;;;;;;;2.50;0.57;;;21.30;99.90;;;;;;5111892;28;20039;-50
2023/07/20 12:21:33;;;;;;;2.45;0.43;;;21.10;99.90;;;;;;5111633;28;20080;-51
2023/07/20 12:23:59;;;;;;;1.48;0.45;;;21.00;99.90;;;;;;5090342;28;20032;-47
2023/07/20 12:26:26;;;;;;;1.52;0.50;;;20.90;99.90;;;;;;5106177;28;20383;-48
2023/07/20 12:28:52;;;;;;;1.95;0.50;;;21.10;99.90;;;;;;5111778;28;20031;-50
2023/07/20 12:31:18;;;;;;;1.58;0.60;;;21.50;99.90;;;;;;5111358;28;20035;-46
2023/07/20 12:33:44;;;;;;;2.13;0.50;;;21.80;99.90;;;;;;5111916;28;20088;-47
2023/07/20 12:36:10;;;;;;;1.42;0.57;;;22.00;99.90;;;;;;5111329;28;20043;-46
2023/07/20 12:38:36;;;;;;;1.73;0.60;;;21.90;99.90;;;;;;5110988;28;20034;-51
2023/07/20 12:41:03;;;;;;;1.08;0.45;;;21.90;99.90;;;;;;5110735;28;20445;-50
2023/07/20 12:43:42;;;;;;;1.85;0.55;;;22.00;99.90;;;;;;5092314;27;20385;-51
2023/07/20 12:46:09;;;;;;;3.83;0.63;;;22.10;99.90;;;;;;5099573;28;20068;-49
2023/07/20 12:48:40;;;;;;;2.08;0.60;;;22.10;99.90;;;;;;5087716;28;20418;-52